sensor_id;sensor_type;location;lat;lon;timestamp;temperature;humidity
18888;DHT22;9576;47.792;9.628;2023-02-01T00:02:46;3.30;99.90
18888;DHT22;9576;47.792;9.628;2023-02-01T00:05:55;3.30;99.90
18888;DHT22;9576;47.792;9.628;2023-02-01T00:08:57;3.30;99.90
18888;DHT22;9576;47.792;9.628;2023-02-01T00:12:01;3.30;99.90
18888;DHT22;9576;47.792;9.628;2023-02-01T00:15:04;3.30;99.90
18888;DHT22;9576;47.792;9.628;2023-02-01T00:18:06;3.40;99.90
18888;DHT22;9576;47.792;9.628;2023-02-01T00:21:09;3.40;99.90
18888;DHT22;9576;47.792;9.628;2023-02-01T00:24:12;3.40;99.90
18888;DHT22;9576;47.792;9.628;2023-02-01T00:27:15;3.40;99.90
18888;DHT22;9576;47.792;9.628;2023-02-01T00:30:20;3.30;99.90
18888;DHT22;9576;47.792;9.628;2023-02-01T00:33:22;3.30;99.90
18888;DHT22;9576;47.792;9.628;2023-02-01T00:36:24;3.30;99.90
18888;DHT22;9576;47.792;9.628;2023-02-01T00:39:26;3.30;99.90
18888;DHT22;9576;47.792;9.628;2023-02-01T00:42:29;3.30;99.90
18888;DHT22;9576;47.792;9.628;2023-02-01T00:45:32;3.30;99.90
18888;DHT22;9576;47.792;9.628;2023-02-01T00:48:34;3.30;99.90
18888;DHT22;9576;47.792;9.628;2023-02-01T00:51:36;3.30;99.90
18888;DHT22;9576;47.792;9.628;2023-02-01T00:54:38;3.30;99.90
18888;DHT22;9576;47.792;9.628;2023-02-01T00:57:41;3.30;99.90
18888;DHT22;9576;47.792;9.628;2023-02-01T01:00:43;3.30;99.90
18888;DHT22;9576;47.792;9.628;2023-02-01T01:03:47;3.30;99.90
18888;DHT22;9576;47.792;9.628;2023-02-01T01:06:51;3.30;99.90
18888;DHT22;9576;47.792;9.628;2023-02-01T01:09:52;3.30;99.90
18888;DHT22;9576;47.792;9.628;2023-02-01T01:12:56;3.30;99.90
18888;DHT22;9576;47.792;9.628;2023-02-01T01:16:00;3.20;99.90
18888;DHT22;9576;47.792;9.628;2023-02-01T01:19:03;3.30;99.90
18888;DHT22;9576;47.792;9.628;2023-02-01T01:22:05;3.30;99.90
18888;DHT22;9576;47.792;9.628;2023-02-01T01:25:07;3.30;99.90
18888;DHT22;9576;47.792;9.628;2023-02-01T01:28:10;3.30;99.90
18888;DHT22;9576;47.792;9.628;2023-02-01T01:31:14;3.30;99.90
18888;DHT22;9576;47.792;9.628;2023-02-01T01:34:16;3.30;99.90
18888;DHT22;9576;47.792;9.628;2023-02-01T01:37:18;3.30;99.90
18888;DHT22;9576;47.792;9.628;2023-02-01T01:40:20;3.30;99.90
18888;DHT22;9576;47.792;9.628;2023-02-01T01:43:23;3.30;99.90
18888;DHT22;9576;47.792;9.628;2023-02-01T01:46:26;3.30;99.90
18888;DHT22;9576;47.792;9.628;2023-02-01T01:49:28;3.30;99.90
18888;DHT22;9576;47.792;9.628;2023-02-01T01:52:30;3.30;99.90
18888;DHT22;9576;47.792;9.628;2023-02-01T01:55:40;3.30;99.90
18888;DHT22;9576;47.792;9.628;2023-02-01T01:58:44;3.30;99.90
18888;DHT22;9576;47.792;9.628;2023-02-01T02:01:47;3.20;99.90
18888;DHT22;9576;47.792;9.628;2023-02-01T02:04:49;3.20;99.90
18888;DHT22;9576;47.792;9.628;2023-02-01T02:07:53;3.20;99.90
18888;DHT22;9576;47.792;9.628;2023-02-01T02:10:55;3.20;99.90
18888;DHT22;9576;47.792;9.628;2023-02-01T02:14:07;3.20;99.90
18888;DHT22;9576;47.792;9.628;2023-02-01T02:17:22;3.10;99.90
18888;DHT22;9576;47.792;9.628;2023-02-01T02:20:39;3.10;99.90
18888;DHT22;9576;47.792;9.628;2023-02-01T02:27:38;3.10;99.90
18888;DHT22;9576;47.792;9.628;2023-02-01T02:31:18;3.20;99.90
18888;DHT22;9576;47.792;9.628;2023-02-01T02:34:29;3.10;99.90
18888;DHT22;9576;47.792;9.628;2023-02-01T02:37:38;3.20;99.90
18888;DHT22;9576;47.792;9.628;2023-02-01T02:40:47;3.10;99.90
18888;DHT22;9576;47.792;9.628;2023-02-01T02:43:56;3.10;99.90
18888;DHT22;9576;47.792;9.628;2023-02-01T02:47:22;3.10;99.90
18888;DHT22;9576;47.792;9.628;2023-02-01T02:50:31;3.10;99.90
18888;DHT22;9576;47.792;9.628;2023-02-01T02:53:58;3.20;99.90
18888;DHT22;9576;47.792;9.628;2023-02-01T02:57:22;3.10;99.90
18888;DHT22;9576;47.792;9.628;2023-02-01T03:00:44;3.10;99.90
18888;DHT22;9576;47.792;9.628;2023-02-01T03:04:04;3.20;99.90
18888;DHT22;9576;47.792;9.628;2023-02-01T03:07:12;3.20;99.90
18888;DHT22;9576;47.792;9.628;2023-02-01T03:10:20;3.20;99.90
18888;DHT22;9576;47.792;9.628;2023-02-01T03:13:31;3.20;99.90
18888;DHT22;9576;47.792;9.628;2023-02-01T03:16:39;3.20;99.90
18888;DHT22;9576;47.792;9.628;2023-02-01T03:19:44;3.20;99.90
18888;DHT22;9576;47.792;9.628;2023-02-01T03:22:51;3.20;99.90
18888;DHT22;9576;47.792;9.628;2023-02-01T03:25:55;3.20;99.90
18888;DHT22;9576;47.792;9.628;2023-02-01T03:29:05;3.20;99.90
18888;DHT22;9576;47.792;9.628;2023-02-01T03:32:09;3.20;99.90
18888;DHT22;9576;47.792;9.628;2023-02-01T03:35:11;3.20;99.90
18888;DHT22;9576;47.792;9.628;2023-02-01T03:38:20;3.20;99.90
18888;DHT22;9576;47.792;9.628;2023-02-01T03:41:27;3.10;99.90
18888;DHT22;9576;47.792;9.628;2023-02-01T03:44:32;3.10;99.90
18888;DHT22;9576;47.792;9.628;2023-02-01T03:47:36;3.10;99.90
18888;DHT22;9576;47.792;9.628;2023-02-01T03:50:43;3.10;99.90
18888;DHT22;9576;47.792;9.628;2023-02-01T03:53:48;3.10;99.90
18888;DHT22;9576;47.792;9.628;2023-02-01T03:56:52;3.10;99.90
18888;DHT22;9576;47.792;9.628;2023-02-01T04:00:04;3.10;99.90
18888;DHT22;9576;47.792;9.628;2023-02-01T04:03:07;3.10;99.90
18888;DHT22;9576;47.792;9.628;2023-02-01T04:06:09;3.10;99.90
18888;DHT22;9576;47.792;9.628;2023-02-01T04:09:12;3.10;99.90
18888;DHT22;9576;47.792;9.628;2023-02-01T04:12:14;3.10;99.90
18888;DHT22;9576;47.792;9.628;2023-02-01T04:15:16;3.20;99.90
18888;DHT22;9576;47.792;9.628;2023-02-01T04:18:18;3.20;99.90
18888;DHT22;9576;47.792;9.628;2023-02-01T04:21:20;3.20;99.90
18888;DHT22;9576;47.792;9.628;2023-02-01T04:24:23;3.20;99.90
18888;DHT22;9576;47.792;9.628;2023-02-01T04:27:25;3.10;99.90
18888;DHT22;9576;47.792;9.628;2023-02-01T04:30:27;3.20;99.90
18888;DHT22;9576;47.792;9.628;2023-02-01T04:33:29;3.20;99.90
18888;DHT22;9576;47.792;9.628;2023-02-01T04:36:32;3.20;99.90
18888;DHT22;9576;47.792;9.628;2023-02-01T04:39:35;3.20;99.90
18888;DHT22;9576;47.792;9.628;2023-02-01T04:42:37;3.20;99.90
18888;DHT22;9576;47.792;9.628;2023-02-01T04:45:39;3.20;99.90
18888;DHT22;9576;47.792;9.628;2023-02-01T04:48:41;3.20;99.90
18888;DHT22;9576;47.792;9.628;2023-02-01T04:51:43;3.20;99.90
18888;DHT22;9576;47.792;9.628;2023-02-01T04:54:47;3.10;99.90
18888;DHT22;9576;47.792;9.628;2023-02-01T04:57:48;3.10;99.90
18888;DHT22;9576;47.792;9.628;2023-02-01T05:00:50;3.10;99.90
18888;DHT22;9576;47.792;9.628;2023-02-01T05:03:52;3.10;99.90
18888;DHT22;9576;47.792;9.628;2023-02-01T05:06:54;3.10;99.90
18888;DHT22;9576;47.792;9.628;2023-02-01T05:09:58;3.10;99.90
18888;DHT22;9576;47.792;9.628;2023-02-01T05:12:59;3.10;99.90
18888;DHT22;9576;47.792;9.628;2023-02-01T05:16:19;3.10;99.90
18888;DHT22;9576;47.792;9.628;2023-02-01T05:19:21;3.00;99.90
18888;DHT22;9576;47.792;9.628;2023-02-01T05:22:23;3.10;99.90
18888;DHT22;9576;47.792;9.628;2023-02-01T05:25:26;3.00;99.90
18888;DHT22;9576;47.792;9.628;2023-02-01T05:28:28;3.00;99.90
18888;DHT22;9576;47.792;9.628;2023-02-01T05:31:30;3.00;99.90
18888;DHT22;9576;47.792;9.628;2023-02-01T05:34:32;3.00;99.90
18888;DHT22;9576;47.792;9.628;2023-02-01T05:37:34;3.00;99.90
18888;DHT22;9576;47.792;9.628;2023-02-01T05:40:37;3.00;99.90
18888;DHT22;9576;47.792;9.628;2023-02-01T05:43:39;3.00;99.90
18888;DHT22;9576;47.792;9.628;2023-02-01T05:46:41;3.00;99.90
18888;DHT22;9576;47.792;9.628;2023-02-01T05:49:43;3.00;99.90
18888;DHT22;9576;47.792;9.628;2023-02-01T05:52:44;3.00;99.90
18888;DHT22;9576;47.792;9.628;2023-02-01T05:55:48;3.00;99.90
18888;DHT22;9576;47.792;9.628;2023-02-01T05:58:50;3.00;99.90
18888;DHT22;9576;47.792;9.628;2023-02-01T06:01:51;2.90;99.90
18888;DHT22;9576;47.792;9.628;2023-02-01T06:04:53;2.90;99.90
18888;DHT22;9576;47.792;9.628;2023-02-01T06:07:55;3.00;99.90
18888;DHT22;9576;47.792;9.628;2023-02-01T06:11:00;2.90;99.90
18888;DHT22;9576;47.792;9.628;2023-02-01T06:14:02;2.90;99.90
18888;DHT22;9576;47.792;9.628;2023-02-01T06:17:03;2.90;99.90
18888;DHT22;9576;47.792;9.628;2023-02-01T06:20:07;2.80;99.90
18888;DHT22;9576;47.792;9.628;2023-02-01T06:23:09;2.90;99.90
18888;DHT22;9576;47.792;9.628;2023-02-01T06:26:12;2.90;99.90
18888;DHT22;9576;47.792;9.628;2023-02-01T06:29:14;2.90;99.90
18888;DHT22;9576;47.792;9.628;2023-02-01T06:32:16;2.90;99.90
18888;DHT22;9576;47.792;9.628;2023-02-01T06:35:19;3.00;99.90
18888;DHT22;9576;47.792;9.628;2023-02-01T06:38:20;2.90;99.90
18888;DHT22;9576;47.792;9.628;2023-02-01T06:41:24;2.90;99.90
18888;DHT22;9576;47.792;9.628;2023-02-01T06:44:26;2.90;99.90
18888;DHT22;9576;47.792;9.628;2023-02-01T06:47:27;2.90;99.90
18888;DHT22;9576;47.792;9.628;2023-02-01T06:50:29;2.90;99.90
18888;DHT22;9576;47.792;9.628;2023-02-01T06:53:31;2.90;99.90
18888;DHT22;9576;47.792;9.628;2023-02-01T06:56:35;2.90;99.90
18888;DHT22;9576;47.792;9.628;2023-02-01T06:59:37;2.90;99.90
18888;DHT22;9576;47.792;9.628;2023-02-01T07:02:39;2.90;99.90
18888;DHT22;9576;47.792;9.628;2023-02-01T07:05:40;2.90;99.90
18888;DHT22;9576;47.792;9.628;2023-02-01T07:08:42;2.90;99.90
18888;DHT22;9576;47.792;9.628;2023-02-01T07:11:47;2.90;99.90
18888;DHT22;9576;47.792;9.628;2023-02-01T07:14:49;2.90;99.90
18888;DHT22;9576;47.792;9.628;2023-02-01T07:17:52;2.90;99.90
18888;DHT22;9576;47.792;9.628;2023-02-01T07:20:56;2.90;99.90
18888;DHT22;9576;47.792;9.628;2023-02-01T07:23:59;2.90;99.90
18888;DHT22;9576;47.792;9.628;2023-02-01T07:27:02;2.90;99.90
18888;DHT22;9576;47.792;9.628;2023-02-01T07:30:05;2.90;99.90
18888;DHT22;9576;47.792;9.628;2023-02-01T07:33:07;2.90;99.90
18888;DHT22;9576;47.792;9.628;2023-02-01T07:36:12;2.90;99.90
18888;DHT22;9576;47.792;9.628;2023-02-01T07:39:14;3.00;99.90
18888;DHT22;9576;47.792;9.628;2023-02-01T07:42:18;3.00;99.90
18888;DHT22;9576;47.792;9.628;2023-02-01T07:45:20;3.00;99.90
18888;DHT22;9576;47.792;9.628;2023-02-01T07:48:25;3.00;99.90
18888;DHT22;9576;47.792;9.628;2023-02-01T07:51:27;3.00;99.90
18888;DHT22;9576;47.792;9.628;2023-02-01T07:54:29;3.00;99.90
18888;DHT22;9576;47.792;9.628;2023-02-01T07:57:32;3.00;99.90
18888;DHT22;9576;47.792;9.628;2023-02-01T08:00:34;3.00;99.90
18888;DHT22;9576;47.792;9.628;2023-02-01T08:03:55;3.00;99.90
18888;DHT22;9576;47.792;9.628;2023-02-01T08:06:57;3.00;99.90
18888;DHT22;9576;47.792;9.628;2023-02-01T08:09:59;3.10;99.90
18888;DHT22;9576;47.792;9.628;2023-02-01T08:13:02;3.10;99.90
18888;DHT22;9576;47.792;9.628;2023-02-01T08:16:06;3.10;99.90
18888;DHT22;9576;47.792;9.628;2023-02-01T08:19:08;3.20;99.90
18888;DHT22;9576;47.792;9.628;2023-02-01T08:22:10;3.20;99.90
18888;DHT22;9576;47.792;9.628;2023-02-01T08:25:12;3.20;99.90
18888;DHT22;9576;47.792;9.628;2023-02-01T08:28:15;3.20;99.90
18888;DHT22;9576;47.792;9.628;2023-02-01T08:31:19;3.30;99.90
18888;DHT22;9576;47.792;9.628;2023-02-01T08:34:21;3.30;99.90
18888;DHT22;9576;47.792;9.628;2023-02-01T08:37:23;3.20;99.90
18888;DHT22;9576;47.792;9.628;2023-02-01T08:40:25;3.20;99.90
18888;DHT22;9576;47.792;9.628;2023-02-01T08:43:28;3.20;99.90
18888;DHT22;9576;47.792;9.628;2023-02-01T08:46:30;3.20;99.90
18888;DHT22;9576;47.792;9.628;2023-02-01T08:49:32;3.20;99.90
18888;DHT22;9576;47.792;9.628;2023-02-01T08:52:34;3.20;99.90
18888;DHT22;9576;47.792;9.628;2023-02-01T08:55:36;3.10;99.90
18888;DHT22;9576;47.792;9.628;2023-02-01T08:58:40;3.10;99.90
18888;DHT22;9576;47.792;9.628;2023-02-01T09:01:42;3.10;99.90
18888;DHT22;9576;47.792;9.628;2023-02-01T09:04:44;3.10;99.90
18888;DHT22;9576;47.792;9.628;2023-02-01T09:07:46;3.20;99.90
18888;DHT22;9576;47.792;9.628;2023-02-01T09:10:47;3.20;99.90
18888;DHT22;9576;47.792;9.628;2023-02-01T09:13:51;3.20;99.90
18888;DHT22;9576;47.792;9.628;2023-02-01T09:16:53;3.30;99.90
18888;DHT22;9576;47.792;9.628;2023-02-01T09:19:55;3.40;99.90
18888;DHT22;9576;47.792;9.628;2023-02-01T09:22:57;3.30;99.90
18888;DHT22;9576;47.792;9.628;2023-02-01T09:25:59;3.30;99.90
18888;DHT22;9576;47.792;9.628;2023-02-01T09:29:03;3.30;99.90
18888;DHT22;9576;47.792;9.628;2023-02-01T09:32:06;3.40;99.90
18888;DHT22;9576;47.792;9.628;2023-02-01T09:35:08;3.40;99.90
18888;DHT22;9576;47.792;9.628;2023-02-01T09:38:10;3.40;99.90
18888;DHT22;9576;47.792;9.628;2023-02-01T09:41:26;3.40;99.90
18888;DHT22;9576;47.792;9.628;2023-02-01T09:44:42;3.50;99.90
18888;DHT22;9576;47.792;9.628;2023-02-01T09:47:50;3.50;99.90
18888;DHT22;9576;47.792;9.628;2023-02-01T09:50:56;3.50;99.90
18888;DHT22;9576;47.792;9.628;2023-02-01T09:54:04;3.60;99.90
18888;DHT22;9576;47.792;9.628;2023-02-01T09:57:10;3.60;99.90
18888;DHT22;9576;47.792;9.628;2023-02-01T10:00:20;3.60;99.90
18888;DHT22;9576;47.792;9.628;2023-02-01T10:03:27;3.60;99.90
18888;DHT22;9576;47.792;9.628;2023-02-01T10:07:00;3.60;99.90
18888;DHT22;9576;47.792;9.628;2023-02-01T10:10:05;3.70;99.90
18888;DHT22;9576;47.792;9.628;2023-02-01T10:13:19;3.70;99.90
18888;DHT22;9576;47.792;9.628;2023-02-01T10:16:37;3.70;99.90
18888;DHT22;9576;47.792;9.628;2023-02-01T10:19:47;3.80;99.90
18888;DHT22;9576;47.792;9.628;2023-02-01T10:23:01;3.80;99.90
18888;DHT22;9576;47.792;9.628;2023-02-01T10:26:15;3.90;99.90
18888;DHT22;9576;47.792;9.628;2023-02-01T10:29:20;3.90;99.90
18888;DHT22;9576;47.792;9.628;2023-02-01T10:32:29;3.90;99.90
18888;DHT22;9576;47.792;9.628;2023-02-01T10:35:34;4.00;99.90
18888;DHT22;9576;47.792;9.628;2023-02-01T10:38:39;4.00;99.90
18888;DHT22;9576;47.792;9.628;2023-02-01T10:41:41;4.00;99.90
18888;DHT22;9576;47.792;9.628;2023-02-01T10:44:44;4.00;99.90
18888;DHT22;9576;47.792;9.628;2023-02-01T10:47:51;4.10;99.90
18888;DHT22;9576;47.792;9.628;2023-02-01T10:50:58;4.00;99.90
18888;DHT22;9576;47.792;9.628;2023-02-01T10:54:03;4.00;99.90
18888;DHT22;9576;47.792;9.628;2023-02-01T10:57:11;4.10;99.90
18888;DHT22;9576;47.792;9.628;2023-02-01T11:00:22;4.20;99.90
18888;DHT22;9576;47.792;9.628;2023-02-01T11:03:41;4.20;99.90
18888;DHT22;9576;47.792;9.628;2023-02-01T11:06:44;4.20;99.90
18888;DHT22;9576;47.792;9.628;2023-02-01T11:09:50;4.30;99.90
18888;DHT22;9576;47.792;9.628;2023-02-01T11:12:55;4.30;99.90
18888;DHT22;9576;47.792;9.628;2023-02-01T11:15:58;4.30;99.90
18888;DHT22;9576;47.792;9.628;2023-02-01T11:19:05;4.30;99.90
18888;DHT22;9576;47.792;9.628;2023-02-01T11:22:07;4.20;99.90
18888;DHT22;9576;47.792;9.628;2023-02-01T11:25:13;4.30;99.90
18888;DHT22;9576;47.792;9.628;2023-02-01T11:28:16;4.30;99.90
18888;DHT22;9576;47.792;9.628;2023-02-01T11:31:18;4.30;99.90
18888;DHT22;9576;47.792;9.628;2023-02-01T11:34:28;4.30;99.90
18888;DHT22;9576;47.792;9.628;2023-02-01T11:37:33;4.30;99.90
18888;DHT22;9576;47.792;9.628;2023-02-01T11:40:37;4.30;99.90
18888;DHT22;9576;47.792;9.628;2023-02-01T11:43:51;4.40;99.90
18888;DHT22;9576;47.792;9.628;2023-02-01T11:46:53;4.40;99.90
18888;DHT22;9576;47.792;9.628;2023-02-01T11:49:58;4.40;99.90
18888;DHT22;9576;47.792;9.628;2023-02-01T11:53:09;4.40;99.90
18888;DHT22;9576;47.792;9.628;2023-02-01T11:56:22;4.40;99.90
18888;DHT22;9576;47.792;9.628;2023-02-01T11:59:34;4.40;99.90
18888;DHT22;9576;47.792;9.628;2023-02-01T12:03:05;4.50;99.90
18888;DHT22;9576;47.792;9.628;2023-02-01T12:06:18;4.50;99.90
18888;DHT22;9576;47.792;9.628;2023-02-01T12:09:33;4.50;99.90
18888;DHT22;9576;47.792;9.628;2023-02-01T12:12:45;4.60;99.90
18888;DHT22;9576;47.792;9.628;2023-02-01T12:16:00;4.60;99.90
18888;DHT22;9576;47.792;9.628;2023-02-01T12:19:23;4.70;99.90
18888;DHT22;9576;47.792;9.628;2023-02-01T12:22:41;4.80;99.90
18888;DHT22;9576;47.792;9.628;2023-02-01T12:26:00;4.90;99.90
18888;DHT22;9576;47.792;9.628;2023-02-01T12:29:17;4.90;99.90
18888;DHT22;9576;47.792;9.628;2023-02-01T12:32:29;5.00;99.90
18888;DHT22;9576;47.792;9.628;2023-02-01T12:35:51;5.00;99.90
18888;DHT22;9576;47.792;9.628;2023-02-01T12:39:05;5.00;99.90
18888;DHT22;9576;47.792;9.628;2023-02-01T12:42:11;5.00;99.90
18888;DHT22;9576;47.792;9.628;2023-02-01T12:45:25;5.00;99.90
18888;DHT22;9576;47.792;9.628;2023-02-01T12:48:31;5.00;99.90
18888;DHT22;9576;47.792;9.628;2023-02-01T12:51:36;5.00;99.90
18888;DHT22;9576;47.792;9.628;2023-02-01T12:54:45;5.00;99.90
18888;DHT22;9576;47.792;9.628;2023-02-01T12:57:51;5.00;99.90
18888;DHT22;9576;47.792;9.628;2023-02-01T13:00:59;5.00;99.90
18888;DHT22;9576;47.792;9.628;2023-02-01T13:04:08;5.00;99.90
18888;DHT22;9576;47.792;9.628;2023-02-01T13:07:16;5.00;99.90
18888;DHT22;9576;47.792;9.628;2023-02-01T13:10:30;5.10;99.90
18888;DHT22;9576;47.792;9.628;2023-02-01T13:13:48;5.10;99.90
18888;DHT22;9576;47.792;9.628;2023-02-01T13:16:53;5.20;99.90
18888;DHT22;9576;47.792;9.628;2023-02-01T13:20:00;5.20;99.90
18888;DHT22;9576;47.792;9.628;2023-02-01T13:23:05;5.20;99.90
18888;DHT22;9576;47.792;9.628;2023-02-01T13:26:11;5.10;99.90
18888;DHT22;9576;47.792;9.628;2023-02-01T13:29:13;5.10;99.90
18888;DHT22;9576;47.792;9.628;2023-02-01T13:36:10;5.10;99.90
18888;DHT22;9576;47.792;9.628;2023-02-01T13:39:45;5.10;99.90
18888;DHT22;9576;47.792;9.628;2023-02-01T13:42:52;5.10;99.90
18888;DHT22;9576;47.792;9.628;2023-02-01T13:45:56;5.10;99.90
18888;DHT22;9576;47.792;9.628;2023-02-01T13:49:01;5.10;99.90
18888;DHT22;9576;47.792;9.628;2023-02-01T13:52:03;5.10;99.90
18888;DHT22;9576;47.792;9.628;2023-02-01T13:55:28;5.10;99.90
18888;DHT22;9576;47.792;9.628;2023-02-01T13:58:34;5.10;99.90
18888;DHT22;9576;47.792;9.628;2023-02-01T14:01:37;5.10;99.90
18888;DHT22;9576;47.792;9.628;2023-02-01T14:04:47;5.00;99.90
18888;DHT22;9576;47.792;9.628;2023-02-01T14:08:09;5.00;99.90
18888;DHT22;9576;47.792;9.628;2023-02-01T14:11:34;5.00;99.90
18888;DHT22;9576;47.792;9.628;2023-02-01T14:14:40;5.00;99.90
18888;DHT22;9576;47.792;9.628;2023-02-01T14:17:42;4.90;99.90
18888;DHT22;9576;47.792;9.628;2023-02-01T14:20:45;4.90;99.90
18888;DHT22;9576;47.792;9.628;2023-02-01T14:23:57;4.90;99.90
18888;DHT22;9576;47.792;9.628;2023-02-01T14:27:00;4.90;99.90
18888;DHT22;9576;47.792;9.628;2023-02-01T14:30:14;4.90;99.90
18888;DHT22;9576;47.792;9.628;2023-02-01T14:33:21;4.90;99.90
18888;DHT22;9576;47.792;9.628;2023-02-01T14:36:23;4.90;99.90
18888;DHT22;9576;47.792;9.628;2023-02-01T14:39:40;5.00;99.90
18888;DHT22;9576;47.792;9.628;2023-02-01T14:42:49;4.90;99.90
18888;DHT22;9576;47.792;9.628;2023-02-01T14:45:53;5.00;99.90
18888;DHT22;9576;47.792;9.628;2023-02-01T14:48:56;5.00;99.90
18888;DHT22;9576;47.792;9.628;2023-02-01T14:51:59;5.00;99.90
18888;DHT22;9576;47.792;9.628;2023-02-01T14:55:05;5.00;99.90
18888;DHT22;9576;47.792;9.628;2023-02-01T14:58:16;5.00;99.90
18888;DHT22;9576;47.792;9.628;2023-02-01T15:01:24;5.00;99.90
18888;DHT22;9576;47.792;9.628;2023-02-01T15:04:27;5.00;99.90
18888;DHT22;9576;47.792;9.628;2023-02-01T15:07:29;5.00;99.90
18888;DHT22;9576;47.792;9.628;2023-02-01T15:10:33;5.00;99.90
18888;DHT22;9576;47.792;9.628;2023-02-01T15:13:40;5.00;99.90
18888;DHT22;9576;47.792;9.628;2023-02-01T15:16:50;5.00;99.90
18888;DHT22;9576;47.792;9.628;2023-02-01T15:19:56;5.00;99.90
18888;DHT22;9576;47.792;9.628;2023-02-01T15:22:59;5.00;99.90
18888;DHT22;9576;47.792;9.628;2023-02-01T15:26:01;5.00;99.90
18888;DHT22;9576;47.792;9.628;2023-02-01T15:29:03;4.90;99.90
18888;DHT22;9576;47.792;9.628;2023-02-01T15:32:30;4.90;99.90
18888;DHT22;9576;47.792;9.628;2023-02-01T15:35:35;4.90;99.90
18888;DHT22;9576;47.792;9.628;2023-02-01T15:38:39;4.90;99.90
18888;DHT22;9576;47.792;9.628;2023-02-01T15:41:48;4.90;99.90
18888;DHT22;9576;47.792;9.628;2023-02-01T15:44:50;4.90;99.90
18888;DHT22;9576;47.792;9.628;2023-02-01T15:47:55;4.90;99.90
18888;DHT22;9576;47.792;9.628;2023-02-01T15:50:57;4.90;99.90
18888;DHT22;9576;47.792;9.628;2023-02-01T15:54:01;4.80;99.90
18888;DHT22;9576;47.792;9.628;2023-02-01T15:57:03;4.80;99.90
18888;DHT22;9576;47.792;9.628;2023-02-01T16:00:08;4.80;99.90
18888;DHT22;9576;47.792;9.628;2023-02-01T16:03:35;4.80;99.90
18888;DHT22;9576;47.792;9.628;2023-02-01T16:06:45;4.80;99.90
18888;DHT22;9576;47.792;9.628;2023-02-01T16:09:52;4.80;99.90
18888;DHT22;9576;47.792;9.628;2023-02-01T16:12:54;4.70;99.90
18888;DHT22;9576;47.792;9.628;2023-02-01T16:16:00;4.80;99.90
18888;DHT22;9576;47.792;9.628;2023-02-01T16:19:04;4.70;99.90
18888;DHT22;9576;47.792;9.628;2023-02-01T16:22:06;4.70;99.90
18888;DHT22;9576;47.792;9.628;2023-02-01T16:25:08;4.70;99.90
18888;DHT22;9576;47.792;9.628;2023-02-01T16:28:10;4.70;99.90
18888;DHT22;9576;47.792;9.628;2023-02-01T16:31:14;4.70;99.90
18888;DHT22;9576;47.792;9.628;2023-02-01T16:34:21;4.70;99.90
18888;DHT22;9576;47.792;9.628;2023-02-01T16:37:24;4.60;99.90
18888;DHT22;9576;47.792;9.628;2023-02-01T16:40:28;4.60;99.90
18888;DHT22;9576;47.792;9.628;2023-02-01T16:43:30;4.70;99.90
18888;DHT22;9576;47.792;9.628;2023-02-01T16:46:35;4.60;99.90
18888;DHT22;9576;47.792;9.628;2023-02-01T16:49:42;4.60;99.90
18888;DHT22;9576;47.792;9.628;2023-02-01T16:52:44;4.60;99.90
18888;DHT22;9576;47.792;9.628;2023-02-01T16:55:46;4.60;99.90
18888;DHT22;9576;47.792;9.628;2023-02-01T16:58:49;4.60;99.90
18888;DHT22;9576;47.792;9.628;2023-02-01T17:01:52;4.60;99.90
18888;DHT22;9576;47.792;9.628;2023-02-01T17:04:55;4.60;99.90
18888;DHT22;9576;47.792;9.628;2023-02-01T17:08:03;4.60;99.90
18888;DHT22;9576;47.792;9.628;2023-02-01T17:11:06;4.50;99.90
18888;DHT22;9576;47.792;9.628;2023-02-01T17:14:14;4.60;99.90
18888;DHT22;9576;47.792;9.628;2023-02-01T17:17:17;4.50;99.90
18888;DHT22;9576;47.792;9.628;2023-02-01T17:20:22;4.50;99.90
18888;DHT22;9576;47.792;9.628;2023-02-01T17:23:25;4.50;99.90
18888;DHT22;9576;47.792;9.628;2023-02-01T17:26:28;4.50;99.90
18888;DHT22;9576;47.792;9.628;2023-02-01T17:29:30;4.50;99.90
18888;DHT22;9576;47.792;9.628;2023-02-01T17:32:32;4.50;99.90
18888;DHT22;9576;47.792;9.628;2023-02-01T17:35:35;4.50;99.90
18888;DHT22;9576;47.792;9.628;2023-02-01T17:38:37;4.40;99.90
18888;DHT22;9576;47.792;9.628;2023-02-01T17:41:39;4.50;99.90
18888;DHT22;9576;47.792;9.628;2023-02-01T17:44:41;4.50;99.90
18888;DHT22;9576;47.792;9.628;2023-02-01T17:47:43;4.40;99.90
18888;DHT22;9576;47.792;9.628;2023-02-01T17:50:49;4.40;99.90
18888;DHT22;9576;47.792;9.628;2023-02-01T17:53:54;4.40;99.90
18888;DHT22;9576;47.792;9.628;2023-02-01T17:56:56;4.40;99.90
18888;DHT22;9576;47.792;9.628;2023-02-01T17:59:59;4.40;99.90
18888;DHT22;9576;47.792;9.628;2023-02-01T18:03:01;4.40;99.90
18888;DHT22;9576;47.792;9.628;2023-02-01T18:06:10;4.50;99.90
18888;DHT22;9576;47.792;9.628;2023-02-01T18:09:13;4.50;99.90
18888;DHT22;9576;47.792;9.628;2023-02-01T18:12:20;4.50;99.90
18888;DHT22;9576;47.792;9.628;2023-02-01T18:15:23;4.50;99.90
18888;DHT22;9576;47.792;9.628;2023-02-01T18:18:26;4.50;99.90
18888;DHT22;9576;47.792;9.628;2023-02-01T18:21:32;4.50;99.90
18888;DHT22;9576;47.792;9.628;2023-02-01T18:24:34;4.50;99.90
18888;DHT22;9576;47.792;9.628;2023-02-01T18:27:37;4.50;99.90
18888;DHT22;9576;47.792;9.628;2023-02-01T18:30:39;4.50;99.90
18888;DHT22;9576;47.792;9.628;2023-02-01T18:33:40;4.50;99.90
18888;DHT22;9576;47.792;9.628;2023-02-01T18:36:44;4.50;99.90
18888;DHT22;9576;47.792;9.628;2023-02-01T18:39:46;4.50;99.90
18888;DHT22;9576;47.792;9.628;2023-02-01T18:42:47;4.50;99.90
18888;DHT22;9576;47.792;9.628;2023-02-01T18:45:49;4.50;99.90
18888;DHT22;9576;47.792;9.628;2023-02-01T18:48:51;4.50;99.90
18888;DHT22;9576;47.792;9.628;2023-02-01T18:51:55;4.50;99.90
18888;DHT22;9576;47.792;9.628;2023-02-01T18:54:57;4.50;99.90
18888;DHT22;9576;47.792;9.628;2023-02-01T18:57:59;4.50;99.90
18888;DHT22;9576;47.792;9.628;2023-02-01T19:01:05;4.50;99.90
18888;DHT22;9576;47.792;9.628;2023-02-01T19:04:08;4.50;99.90
18888;DHT22;9576;47.792;9.628;2023-02-01T19:07:11;4.50;99.90
18888;DHT22;9576;47.792;9.628;2023-02-01T19:10:16;4.50;99.90
18888;DHT22;9576;47.792;9.628;2023-02-01T19:13:17;4.50;99.90
18888;DHT22;9576;47.792;9.628;2023-02-01T19:16:20;4.50;99.90
18888;DHT22;9576;47.792;9.628;2023-02-01T19:19:22;4.50;99.90
18888;DHT22;9576;47.792;9.628;2023-02-01T19:22:26;4.50;99.90
18888;DHT22;9576;47.792;9.628;2023-02-01T19:25:28;4.50;99.90
18888;DHT22;9576;47.792;9.628;2023-02-01T19:28:30;4.50;99.90
18888;DHT22;9576;47.792;9.628;2023-02-01T19:31:32;4.40;99.90
18888;DHT22;9576;47.792;9.628;2023-02-01T19:34:34;4.40;99.90
18888;DHT22;9576;47.792;9.628;2023-02-01T19:37:38;4.40;99.90
18888;DHT22;9576;47.792;9.628;2023-02-01T19:40:41;4.50;99.90
18888;DHT22;9576;47.792;9.628;2023-02-01T19:43:44;4.50;99.90
18888;DHT22;9576;47.792;9.628;2023-02-01T19:46:46;4.50;99.90
18888;DHT22;9576;47.792;9.628;2023-02-01T19:49:48;4.50;99.90
18888;DHT22;9576;47.792;9.628;2023-02-01T19:52:51;4.40;99.90
18888;DHT22;9576;47.792;9.628;2023-02-01T19:55:54;4.40;99.90
18888;DHT22;9576;47.792;9.628;2023-02-01T19:58:56;4.40;99.90
18888;DHT22;9576;47.792;9.628;2023-02-01T20:01:58;4.40;99.90
18888;DHT22;9576;47.792;9.628;2023-02-01T20:05:00;4.50;99.90
18888;DHT22;9576;47.792;9.628;2023-02-01T20:08:03;4.50;99.90
18888;DHT22;9576;47.792;9.628;2023-02-01T20:11:06;4.50;99.90
18888;DHT22;9576;47.792;9.628;2023-02-01T20:14:08;4.40;99.90
18888;DHT22;9576;47.792;9.628;2023-02-01T20:17:13;4.40;99.90
18888;DHT22;9576;47.792;9.628;2023-02-01T20:20:16;4.40;99.90